OCREC2019 - NINJA TRACK

Organizator:
Stowarzyszenie Biegów Przeszkodowych OCR Polska
Data:
2019-06-27
Miejsce:
Gdynia
Dystans:
0.15 km
Zgłoszonych:
312
Wystartowało:
159
Nie ukończyło:
0
Ukończyło:
159
Na trasie:
0
Pełne wyniki :
Wyniki uproszczone:
Klasyfikacje w punktach pomiarowych: Start | Meta
Klasyfikacje wg kategorii: Wszyscy | Women | Men

Klasyfikacja wg czasów brutto.
MscZawodnikNumerKlubMiejscowośćKrajKategoriaMkatK/MNumer 2Numer 3Czas startuCzas
netto
0.15km
Czas
brutto
0.15km
Różn.Tempo
min/km
Tempo
km/h
         
1BANDOSZ Robert 189Men1M 1  00:00:0000:00:58.0600:00:58.06 6:269.3
2VITALY Potapov 129Men2M 237860100:00:0000:01:03.0100:01:03.01+00:00:047:008.6
3KREJCI Pavel 7Men3M 329952200:00:0000:01:04.0400:01:04.04+00:00:057:068.4
4NIKITA Khaydukov 245Men4M 447569800:00:0000:01:04.0800:01:04.08+00:00:067:068.4
5DECIUK Teofil 191Men5M 542765000:00:0000:01:05.0000:01:05.00+00:00:067:138.3
6ZAWISTOWSKI Jakub 178Men6M 641563800:00:0000:01:05.0100:01:05.01+00:00:067:138.3
7SVOBODA Vítek 148Men7M 739161400:00:0000:01:05.0600:01:05.06+00:00:077:138.3
8KARCZMARSKI Mateusz 186Men8M 842364600:00:0000:01:06.0700:01:06.07+00:00:087:208.2
9WIKTOROWICZ Mariusz 249Men9M 947870100:00:0000:01:06.0800:01:06.08+00:00:087:208.2
10SOBIERAJSKI Bolesław 124Men10M 1037559800:00:0000:01:07.0900:01:07.09+00:00:097:268.1
11MIKHAILOV Victor 234Men11M 1146568800:00:0000:01:08.0400:01:08.04+00:00:097:337.9
12ПЕРМЯКОВ Игорь 227Men12M 1245968200:00:0000:01:09.0000:01:09.00+00:00:107:407.8
13BANDOSZ Robert 240Men13M 1347169400:00:0000:01:09.0500:01:09.05+00:00:107:407.8
14CAŁA Wojciech 237Men14M 1446869100:00:0000:01:11.0100:01:11.01+00:00:127:537.6
15KALININ Jarosław 94Men15M 1535157400:00:0000:01:12.0700:01:12.07+00:00:148:007.5
16MORI Riccardo 116Men16M 1636859100:00:0000:01:13.0800:01:13.08+00:00:158:067.4
17SOBIERAJSKI Marian 205Men17M 1743966200:00:0000:01:13.0900:01:13.09+00:00:158:067.4
18VADZIM Shalkouski 140Men18M 1838660900:00:0000:01:15.0100:01:15.01+00:00:168:207.2
19TORMA Árpád 55Men19M 1932454700:00:0000:01:15.0400:01:15.04+00:00:168:207.2
20DUUREN Ruben Van 746Men20M 2074774800:00:0000:01:16.0000:01:16.00+00:00:178:267.1
21DECIUK Antczak/teofil 168Men21M 2140963200:00:0000:01:18.0400:01:18.04+00:00:198:406.9
22KADRMAS Marek 247Men22M 22  00:00:0000:01:18.0700:01:18.07+00:00:208:406.9
23KADRMAS Marek 18Men23M 23  00:00:0000:01:19.0100:01:19.01+00:00:208:466.8
24MOLNÁR Gergely 230Men24M 2446268500:00:0000:01:19.0700:01:19.07+00:00:218:466.8
25VANDEWALLE Billy 167Men25M 2540863100:00:0000:01:19.0800:01:19.08+00:00:218:466.8
26KOHUT Ivan 200Men26M 2643665900:00:0000:01:20.0400:01:20.04+00:00:218:536.8
27JOZEFIAK Lukasz 14Men27M 2730652900:00:0000:01:20.0700:01:20.07+00:00:228:536.8
28PELISSIER Benoit 150Men28M 2839361600:00:0000:01:24.0000:01:24.00+00:00:259:206.4
29GYÖMREI Máté 58Men29M 2932654900:00:0000:01:26.0400:01:26.04+00:00:279:336.3
30REN Emil Friis 183Men30M 3042064300:00:0000:01:26.0600:01:26.06+00:00:289:336.3
31KAREL Štěpán 29Men31M 3131253500:00:0000:01:27.0200:01:27.02+00:00:289:406.2
32WAŃCZYK Łukasz 107Men32M 3236158400:00:0000:01:27.0200:01:27.02+00:00:289:406.2
33NORDVANG Tommy Kvakkestad 84Men33M 3334456700:00:0000:01:27.0300:01:27.03+00:00:289:406.2
34CICHOCKI Filip 254Men34M 3448370600:00:0000:01:27.0500:01:27.05+00:00:289:406.2
35KOWALCZYK Dawid 222Men35M 3545467700:00:0000:01:28.0200:01:28.02+00:00:299:466.1
36ŚWIĘTEK Bartosz 185Men36M 3642264500:00:0000:01:28.0400:01:28.04+00:00:299:466.1
37SCHÄFER Martin 24Men37M 3731053300:00:0000:01:28.0500:01:28.05+00:00:299:466.1
38POWAŻNY Marek 251Men38M 3848070300:00:0000:01:28.0900:01:28.09+00:00:309:466.1
39JUKOWSKI Jarosław 8Men39M 3930052300:00:0000:01:29.0300:01:29.03+00:00:309:536.1
40SAVANOVICH Vitali 86Men40M 4034656900:00:0000:01:29.0500:01:29.05+00:00:309:536.1
41BETCHER Michał 269Men41M 4149671900:00:0000:01:29.0600:01:29.06+00:00:319:536.1
42POŚPIECH Krzysztof Pawlak 128Men42M 4237760000:00:0000:01:29.0600:01:29.06+00:00:319:536.1
43KOFOED Leon 120Men43M 4337259500:00:0000:01:29.0900:01:29.09+00:00:319:536.1
44NILSSON Erik 193Men44M 4442965200:00:0000:01:31.0400:01:31.04+00:00:3210:065.9
45POLETTI Angela 287Women1K 151373600:00:0000:01:32.0500:01:32.05+00:00:3310:135.9
46KONARSKI Łukasz 267Men45M 4549471700:00:0000:01:32.0600:01:32.06+00:00:3410:135.9
47KADRMAS Marek 202Men46M 46  00:00:0000:01:32.0800:01:32.08+00:00:3410:135.9
48ORICHOWSKI Witalij 253Men47M 4748270500:00:0000:01:32.0800:01:32.08+00:00:3410:135.9
49HÅKONSEN Cato 101Men48M 4835858100:00:0000:01:34.0400:01:34.04+00:00:3510:265.7
50STROMMER László 63Men49M 4933055300:00:0000:01:34.0800:01:34.08+00:00:3610:265.7
51TUREK Martin 278Men50M 5050572800:00:0000:01:34.0900:01:34.09+00:00:3610:265.7
52SHERETOV Eugene 76Men51M 5133956200:00:0000:01:35.0700:01:35.07+00:00:3710:335.7
53GUIBERT Romain 184Men52M 5242164400:00:0000:01:35.0700:01:35.07+00:00:3710:335.7
54ANASTASIA Larina 132Women2K 238160400:00:0000:01:36.0700:01:36.07+00:00:3810:405.6
54BAGER Lars 152Men53M 5339561800:00:0000:01:36.0700:01:36.07+00:00:3810:405.6
56LLAPASSET Victor 219Men54M 5445167400:00:0000:01:36.0800:01:36.08+00:00:3810:405.6
57SETTELE Stefan 192Men55M 5542865100:00:0000:01:37.0900:01:37.09+00:00:3910:465.6
58KASZA Rafal 162Men56M 5640462700:00:0000:01:38.0300:01:38.03+00:00:3910:535.5
59CAPARROS Nathan 91Men57M 5735057300:00:0000:01:40.0100:01:40.01+00:00:4111:065.4
60PRYKOWSKI Tomasz 218Men58M 5845067300:00:0000:01:40.0500:01:40.05+00:00:4111:065.4
61MIESZKO 261Men59M 5949071300:00:0000:01:40.0600:01:40.06+00:00:4211:065.4
62MAKARSKI Siarhei 143Men60M 60  00:00:0000:01:40.0800:01:40.08+00:00:4211:065.4
63JULIEN Andrew 221Men61M 6145367600:00:0000:01:41.0800:01:41.08+00:00:4311:135.3
64CARMIGNANI Alessio 208Men62M 6244266500:00:0000:01:42.0100:01:42.01+00:00:4311:205.3
65JASTRZĘBSKI Piotr 82Men63M 6334356600:00:0000:01:42.0100:01:42.01+00:00:4311:205.3
66SULDA Jakub 164Men64M 6440662900:00:0000:01:43.0500:01:43.05+00:00:4411:265.2
67PELLUZ Luis 34Men65M 65  00:00:0000:01:44.0300:01:44.03+00:00:4511:335.2
68FARKOWSKI Konrad 213Men66M 6644566800:00:0000:01:44.0700:01:44.07+00:00:4611:335.2
69HANYK Lukáš 90Men67M 6734957200:00:0000:01:45.0400:01:45.04+00:00:4611:405.1
70NIECKO Grzegorz 270Men68M 6849772000:00:0000:01:45.0700:01:45.07+00:00:4711:405.1
71PROKUDIN Yury 20Men69M 69  00:00:0000:01:48.0500:01:48.05+00:00:4912:005
72SZABÓ József 106Men70M 70  00:00:0000:01:49.0700:01:49.07+00:00:5112:065
73POWELL Alf 285Men71M 7151173400:00:0000:01:50.0100:01:50.01+00:00:5112:134.9
74VLAM Thijs 198Men72M 7243465700:00:0000:01:50.0600:01:50.06+00:00:5212:134.9
75BAPTISTE David 21Men73M 73  00:00:0000:01:52.0200:01:52.02+00:00:5312:264.8
76LILJESTAM Richard 231Men74M 7446368600:00:0000:01:52.0500:01:52.05+00:00:5312:264.8
77KERSTEN Max 238Men75M 7546969200:00:0000:01:53.0400:01:53.04+00:00:5412:334.8
78KEANE Joshua 118Men76M 7637059300:00:0000:01:55.0300:01:55.03+00:00:5612:464.7
79CHRISTENSEN Katja 123Women3K 337459700:00:0000:01:55.0700:01:55.07+00:00:5712:464.7
80OLEKSIUK Andrii 752Men77M 7775375400:00:0000:01:56.0100:01:56.01+00:00:5712:534.7
81JAROSZ Dawid 175Men78M 7841363600:00:0000:01:57.0400:01:57.04+00:00:5813:004.6
82ALIAKSANDR Amlalchuk 250Men79M 7947970200:00:0000:01:58.0000:01:58.00+00:00:5913:064.6
83JANSSON Thomas 134Men80M 8038260500:00:0000:01:58.0600:01:58.06+00:01:0013:064.6
84DOBOSI Gergely 61Men81M 8132855100:00:0000:01:59.0500:01:59.05+00:01:0013:134.5
85HORWARD Adrien 52Men82M 82  00:00:0000:02:00.0900:02:00.09+00:01:0213:204.5
86SLUIS Richard 258Men83M 8348771000:00:0000:02:02.0700:02:02.07+00:01:0413:334.4
87DIMITRY Dotrimont 77Men84M 84  00:00:0000:02:03.0200:02:03.02+00:01:0413:404.4
88MENDES Axel 273Men85M 8550072300:00:0000:02:03.0300:02:03.03+00:01:0413:404.4
89JOHANSEN Philip Hust 12Men86M 8630452700:00:0000:02:04.0000:02:04.00+00:01:0513:464.4
90FIGUEIREDO Rui Pedro Cruz 279Men87M 8750672900:00:0000:02:05.0800:02:05.08+00:01:0713:534.3
91SJÖLIN Johan 96Men88M 8835357600:00:0000:02:06.0000:02:06.00+00:01:0714:004.3
92GEVEN Twan 259Men89M 8948871100:00:0000:02:06.0100:02:06.01+00:01:0714:004.3
93STAMATEL Sebastian 204Men90M 9043866100:00:0000:02:06.0300:02:06.03+00:01:0714:004.3
94TYL Lukáš 67Men91M 9133355600:00:0000:02:06.0700:02:06.07+00:01:0814:004.3
95DORNYI Tamás 9Men92M 9230152400:00:0000:02:07.0500:02:07.05+00:01:0814:064.3
96MACIEJ 228Men93M 9346068300:00:0000:02:08.0000:02:08.00+00:01:0914:134.2
97SZWARC Jagoda 114Women4K 436759000:00:0000:02:09.0300:02:09.03+00:01:1014:204.2
98SANTOS Luis 293Men94M 94  00:00:0000:02:09.0500:02:09.05+00:01:1014:204.2
99BIGDA Paweł 187Men95M 9542464700:00:0000:02:09.0500:02:09.05+00:01:1014:204.2
100WINTERS Arjan 73Men96M 96  00:00:0000:02:09.0900:02:09.09+00:01:1114:204.2
101LOPES Paulo Alexandre Costa 115Men97M 97  00:00:0000:02:12.0300:02:12.03+00:01:1314:404.1
102ŠNOPL Víťa 142Men98M 9838861100:00:0000:02:12.0400:02:12.04+00:01:1314:404.1
103OLIN Kenneth 39Men99M 9931553800:00:0000:02:12.0700:02:12.07+00:01:1414:404.1
104GARCIA Manuel Caamaño 272Men100M 10049972200:00:0000:02:13.0600:02:13.06+00:01:1514:464.1
105DĄBROWSKI Tomasz 268Men101M 10149571800:00:0000:02:15.0000:02:15.00+00:01:1615:004
106HÄRKÖNEN Elin 209Women5K 544366600:00:0000:02:15.0400:02:15.04+00:01:1615:004
107ENDERBY Rich 173Men102M 10241163400:00:0000:02:16.0400:02:16.04+00:01:1715:064
108DOMÍNGUEZ Eduardo Díaz 100Men103M 10335758000:00:0000:02:16.0600:02:16.06+00:01:1815:064
109STIIG Jonathan 71Men104M 10433655900:00:0000:02:16.0700:02:16.07+00:01:1815:064
110LENOIR Cyril 51Men105M 10532254500:00:0000:02:18.0300:02:18.03+00:01:1915:203.9
111PISARCZYK Karolina 80Women6K 634156400:00:0000:02:18.0300:02:18.03+00:01:1915:203.9
112SZYMAŃSKI Mateusz 216Men106M 10644867100:00:0000:02:18.0700:02:18.07+00:01:2015:203.9
113WYSŁUCH Wojciech 292Men107M 10751673900:00:0000:02:19.0800:02:19.08+00:01:2115:263.9
114COMMANDEUR Tjeerd 127Men108M 108  00:00:0000:02:20.0300:02:20.03+00:01:2115:333.9
115PARKHOMCHUK Svitlana 288Women7K 751473700:00:0000:02:20.0900:02:20.09+00:01:2215:333.9
116JESSING Iben 89Women8K 834857100:00:0000:02:21.0200:02:21.02+00:01:2215:403.8
117IULIIA Leonova 246Women9K 947669900:00:0000:02:21.0200:02:21.02+00:01:2215:403.8
118MARINA Lopatina 196Women10K 1043265500:00:0000:02:21.0500:02:21.05+00:01:2215:403.8
119GERICH Jan Von 141Men109M 10938761000:00:0000:02:22.0200:02:22.02+00:01:2315:463.8
120MIKLÓS Fábián 171Men110M 11041063300:00:0000:02:25.0100:02:25.01+00:01:2616:063.7
121REMMER Thomas 62Men111M 11132955200:00:0000:02:26.0000:02:26.00+00:01:2716:133.7
122ROJKOWSKI Jerzy 4Men112M 11229651900:00:0000:02:27.0000:02:27.00+00:01:2816:203.7
123WOŁCZEK Paulina 260Women11K 1148971200:00:0000:02:27.0300:02:27.03+00:01:2816:203.7
124SRNSKÝ Daniel 13Men113M 11330552800:00:0000:02:27.0800:02:27.08+00:01:2916:203.7
125OPOLONY Ireneusz 188Men114M 11442564800:00:0000:02:28.0600:02:28.06+00:01:2916:263.6
126WITEK Paweł 763Men115M 11576476500:00:0000:02:29.0100:02:29.01+00:01:3016:333.6
127LOMNICKÁ Tereza 126Women12K 1237659900:00:0000:02:29.0600:02:29.06+00:01:3116:333.6
128MENSINK Nick 65Men116M 116  00:00:0000:02:31.0900:02:31.09+00:01:3316:463.6
129BENITEZ Manuel Jesús Luján 30Men117M 117  00:00:0000:02:32.0400:02:32.04+00:01:3316:533.6
130IMREIKATA 60Women13K 1332755000:00:0000:02:33.0600:02:33.06+00:01:3517:003.5
131HEYWOOD Laura 15Women14K 1430753000:00:0000:02:34.0400:02:34.04+00:01:3517:063.5
132GARDEBRAND Lucas Kjellin 158Men118M 11840062300:00:0000:02:38.0100:02:38.01+00:01:3917:333.4
133MACIUSZEK Julia 777Women15K 15  00:00:0000:02:39.0000:02:39.00+00:01:4017:403.4
134EGNER Toril 56Women16K 1632554800:00:0000:02:40.0900:02:40.09+00:01:4217:463.4
135ELENA Ladnaya 235Women17K 1746668900:00:0000:02:42.0000:02:42.00+00:01:4318:003.3
136KOWALSKA Natalia 740Women18K 1874174200:00:0000:02:42.0600:02:42.06+00:01:4418:003.3
137TOJAR Luis Martin 83Men119M 119  00:00:0000:02:43.0600:02:43.06+00:01:4518:063.3
138JANUSZEWSKI Bartosz 252Men120M 12048170400:00:0000:02:44.0100:02:44.01+00:01:4518:133.3
139MACIUSZEK Julia 199Women19K 1943565800:00:0000:02:45.0100:02:45.01+00:01:4618:203.3
140ZDEB Maciej 761Men121M 121  00:00:0000:02:47.0500:02:47.05+00:01:4818:333.2
141MICHEL Jérémy 38Men122M 122  00:00:0000:02:48.0400:02:48.04+00:01:4918:403.2
142VOROBOK Tomáš 281Men123M 123  00:00:0000:02:48.0600:02:48.06+00:01:4918:403.2
143BERLIN Nanna 206Women20K 2044066300:00:0000:02:51.0900:02:51.09+00:01:5319:003.2
144ATAZ Daniel Blanco 290Men124M 124  00:00:0000:02:52.0600:02:52.06+00:01:5419:063.1
145GÓMEZ-ESCALONILLA Elisa De La Cruz 26Women21K 2131153400:00:0000:02:57.0400:02:57.04+00:01:5819:403.1
146KÖNIG Alexander 256Men125M 12548570800:00:0000:02:57.0800:02:57.08+00:01:5919:403.1
147WAGNER Pia 46Women22K 2231854100:00:0000:02:58.0900:02:58.09+00:02:0019:463
148SŁODOWNIK Dominik 160Men126M 12640262500:00:0000:03:00.0800:03:00.08+00:02:0220:003
149KONEWKA Jacek 133Men127M 127  00:00:0000:03:02.0600:03:02.06+00:02:0420:133
150RAMOS Sérgio 54Men128M 128  00:00:0000:03:09.0000:03:09.00+00:02:1021:002.9
151GRAUEN Kaspar 154Men129M 12939762000:00:0000:03:09.0700:03:09.07+00:02:1121:002.9
152RIBOUD Camille 284Women23K 2351073300:00:0000:03:10.0000:03:10.00+00:02:1121:062.8
153NETHERLANDS 36Women24K 24  00:00:0000:03:11.0800:03:11.08+00:02:1321:132.8
154GROOT Bo De 166Women25K 2540763000:00:0000:03:14.0200:03:14.02+00:02:1521:332.8
155BIRKENFELD Thorben 207Men130M 13044166400:00:0000:03:15.0600:03:15.06+00:02:1721:402.8
156TKACHOVA Margarita 195Women26K 2643165400:00:0000:03:25.0900:03:25.09+00:02:2722:462.6
157KNOPF Philipp 72Men131M 131  00:00:0000:03:27.0700:03:27.07+00:02:2923:002.6
158KRYVKO Margaryta 242Women27K 2747369600:00:0000:04:01.0200:04:01.02+00:03:0226:462.2
159GRAUEN Oliver 155Men132M 13239862100:00:0000:05:26.0000:05:26.00+00:04:2736:131.7
Znaleziono 159 wynik(ów)